Home   Weather   Germany   Bernau bei Berlin   Past weeks
Flag for Germany

Past Weather in Bernau bei Berlin, Brandenburg, Germany — Yesterday and Last 2 Weeks

Currently: 50 °F. Clear. (Weather station: Berlin-Schoenefeld, Germany). See more current weather

Past Weather in Bernau bei Berlin — Graph

°F

Bernau bei Berlin Temperature Yesterday

Maximum temperature yesterday: 73 °F (at 5:20 pm)
Minimum temperature yesterday: 55 °F (at 12:20 am)
Average temperature yesterday: 64 °F

High & Low Weather Summary for the Past Weeks

 TemperatureHumidityPressure
High81 °F (Jun 1, 2:20 pm)100% (Jun 5, 11:50 pm)30.07 "Hg (Jun 5, 11:50 pm)
Low45 °F (Jun 12, 3:20 am)29% (Jun 9, 4:50 pm)29.65 "Hg (Jun 10, 5:50 pm)
Average61 °F67%29.90 "Hg
* Reported Jun 1 1:20 am — Jun 16 1:50 am, Bernau bei Berlin. Weather by CustomWeather, © 2024

Note: Actual official high and low records may vary slightly from our data, if they occured in-between our weather recording intervals... More about our weather records

Bernau bei Berlin Weather History for the Previous 24 Hours

Scroll right to see more
 ConditionsComfort  
Time TempWeatherWind HumidityBarometerVisibility
1:50 am
Sun, Jun 16
50 °FClear.3 mph88%29.83 "Hg10 mi
1:20 am52 °FPassing clouds.3 mph82%29.83 "HgN/A
12:50 am54 °FClear.1 mph77%29.83 "Hg10 mi
12:20 am54 °FClear.1 mph77%29.83 "Hg10 mi
11:50 pm
Sat, Jun 15
57 °FClear.2 mph67%29.83 "Hg10 mi
11:20 pm59 °FPassing clouds.5 mph63%29.83 "HgN/A
10:50 pm63 °FClear.5 mph56%29.80 "Hg10 mi
10:20 pm63 °FClear.5 mph59%29.80 "Hg10 mi
9:50 pm64 °FPassing clouds.7 mph56%29.80 "HgN/A
9:20 pm64 °FSunny.8 mph49%29.77 "Hg10 mi
8:50 pm66 °FPassing clouds.7 mph49%29.77 "HgN/A
8:20 pm68 °FSunny.6 mph53%29.77 "Hg10 mi
7:50 pm68 °FSunny.3 mph53%29.77 "Hg10 mi
7:20 pm70 °FPassing clouds.5 mph46%29.74 "HgN/A
6:50 pm72 °FSunny.10 mph44%29.74 "Hg10 mi
6:20 pm72 °FSunny.16 mph38%29.74 "Hg10 mi
5:50 pm72 °FSunny.15 mph38%29.74 "Hg10 mi
5:20 pm73 °FPassing clouds.18 mph38%29.74 "HgN/A
4:50 pm72 °FPassing clouds.13 mph47%29.71 "HgN/A
3:20 pm72 °FPassing clouds.20 mph47%29.71 "HgN/A
2:20 pm70 °FScattered clouds.21 mph57%29.71 "HgN/A
1:50 pm72 °FBroken clouds.18 mph61%29.71 "HgN/A
1:20 pm70 °FScattered clouds.17 mph69%29.71 "HgN/A
12:20 pm66 °FPassing clouds.16 mph78%29.71 "HgN/A
11:20 am61 °FBroken clouds.14 mph94%29.71 "HgN/A
10:20 am61 °FLight rain. Scattered clouds.14 mph88%29.71 "HgN/A
9:20 am64 °FSunny.12 mph68%29.68 "Hg10 mi
8:50 am64 °FSunny.13 mph68%29.68 "Hg10 mi
8:20 am63 °FSunny.13 mph73%29.68 "Hg10 mi
7:50 am63 °FSunny.12 mph73%29.68 "Hg10 mi
7:20 am61 °FSunny.9 mph77%29.68 "Hg10 mi
6:20 am57 °FPartly sunny.8 mph82%29.71 "HgN/A
5:20 am57 °FPartly sunny.9 mph82%29.71 "HgN/A
4:50 am55 °FPassing clouds.7 mph82%29.71 "HgN/A
4:20 am55 °FPassing clouds.6 mph82%29.74 "HgN/A
2:50 am55 °FClear.8 mph82%29.77 "Hg10 mi
2:20 am55 °FPassing clouds.6 mph82%29.77 "HgN/A
Weather by CustomWeather, © 2024

See weather overview